createdAt,value
2023-02-19T00:01:26.316Z,9.11
2023-02-19T00:03:55.483Z,8.99
2023-02-19T00:06:26.090Z,9.14
2023-02-19T00:08:52.952Z,9.05
2023-02-19T00:11:22.017Z,9.17
2023-02-19T00:13:51.265Z,9.15
2023-02-19T00:16:23.865Z,9.19
2023-02-19T00:18:51.425Z,9.16
2023-02-19T00:21:18.430Z,9.12
2023-02-19T00:23:52.736Z,9.16
2023-02-19T00:26:20.140Z,9.19
2023-02-19T00:28:48.453Z,9.20
2023-02-19T00:31:19.653Z,9.20
2023-02-19T00:33:51.553Z,9.17
2023-02-19T00:36:18.413Z,9.04
2023-02-19T00:38:45.765Z,9.17
2023-02-19T00:41:19.346Z,9.14
2023-02-19T00:43:50.534Z,9.13
2023-02-19T00:46:19.827Z,9.16
2023-02-19T00:48:46.992Z,9.15
2023-02-19T00:51:16.131Z,9.15
2023-02-19T00:53:44.135Z,9.19
2023-02-19T00:56:11.715Z,9.22
2023-02-19T00:58:38.696Z,9.23
2023-02-19T01:01:06.843Z,9.25
2023-02-19T01:03:35.523Z,9.25
2023-02-19T01:06:04.302Z,9.10
2023-02-19T01:08:32.185Z,9.25
2023-02-19T01:11:00.272Z,9.20
2023-02-19T01:13:28.491Z,9.21
2023-02-19T01:16:14.346Z,9.29
2023-02-19T01:18:41.292Z,9.31
2023-02-19T01:21:12.672Z,9.30
2023-02-19T01:23:40.094Z,9.27
2023-02-19T01:26:08.221Z,9.33
2023-02-19T01:28:35.649Z,9.31
2023-02-19T01:31:08.989Z,9.31
2023-02-19T01:33:35.605Z,9.31
2023-02-19T01:36:06.709Z,9.30
2023-02-19T01:38:33.225Z,9.27
2023-02-19T01:41:02.191Z,9.28
2023-02-19T01:43:28.689Z,9.27
2023-02-19T01:45:55.385Z,9.29
2023-02-19T01:48:42.214Z,9.33
2023-02-19T01:51:16.746Z,9.34
2023-02-19T01:53:53.299Z,9.25
2023-02-19T01:56:21.047Z,9.25
2023-02-19T01:58:48.165Z,9.16
2023-02-19T02:01:14.982Z,9.13
2023-02-19T02:03:45.037Z,9.13
2023-02-19T02:06:11.376Z,9.15
2023-02-19T02:08:56.834Z,9.08
2023-02-19T02:11:23.365Z,9.12
2023-02-19T02:13:51.259Z,9.04
2023-02-19T02:16:44.201Z,9.10
2023-02-19T02:19:16.309Z,9.10
2023-02-19T02:22:12.603Z,9.12
2023-02-19T02:25:16.991Z,9.08
2023-02-19T02:27:49.422Z,9.08
2023-02-19T02:30:47.370Z,9.03
2023-02-19T02:33:43.442Z,9.01
2023-02-19T02:36:25.030Z,9.01
2023-02-19T02:38:54.164Z,8.91
2023-02-19T02:41:21.888Z,8.88
2023-02-19T02:43:48.680Z,8.90
2023-02-19T02:46:22.777Z,8.84
2023-02-19T02:48:55.511Z,8.88
2023-02-19T02:51:34.486Z,8.88
2023-02-19T02:54:33.713Z,8.85
2023-02-19T02:57:00.958Z,8.88
2023-02-19T02:59:33.848Z,8.93
2023-02-19T03:02:11.881Z,8.96
2023-02-19T03:05:19.986Z,8.98
2023-02-19T03:07:52.051Z,9.02
2023-02-19T03:10:26.292Z,9.04
2023-02-19T03:13:13.709Z,9.07
2023-02-19T03:16:06.678Z,9.10
2023-02-19T03:18:55.385Z,9.12
2023-02-19T03:21:23.916Z,9.12
2023-02-19T03:24:10.041Z,9.14
2023-02-19T03:26:38.972Z,9.16
2023-02-19T03:29:26.354Z,9.15
2023-02-19T03:31:57.441Z,9.18
2023-02-19T03:34:31.854Z,9.13
2023-02-19T03:37:06.444Z,9.03
2023-02-19T03:39:34.225Z,9.09
2023-02-19T03:42:15.266Z,9.06
2023-02-19T03:45:07.834Z,9.05
2023-02-19T03:47:45.159Z,9.04
2023-02-19T03:50:42.782Z,9.01
2023-02-19T03:53:28.608Z,9.01
2023-02-19T03:55:57.930Z,9.08
2023-02-19T03:58:35.366Z,9.11
2023-02-19T04:01:22.402Z,9.11
2023-02-19T04:03:54.601Z,9.20
2023-02-19T04:06:26.114Z,9.21
2023-02-19T04:08:56.877Z,9.27
2023-02-19T04:11:25.237Z,9.21
2023-02-19T04:14:14.646Z,9.22
2023-02-19T04:16:45.458Z,9.25
2023-02-19T04:19:16.729Z,9.19
2023-02-19T04:21:46.432Z,9.19
2023-02-19T04:24:19.179Z,9.22
2023-02-19T04:26:46.159Z,9.23
2023-02-19T04:29:12.559Z,9.21
2023-02-19T04:31:39.096Z,9.18
2023-02-19T04:34:05.826Z,9.23
2023-02-19T04:36:33.240Z,9.23
2023-02-19T04:38:59.736Z,9.21
2023-02-19T04:41:26.331Z,9.21
2023-02-19T04:43:52.779Z,9.23
2023-02-19T04:46:19.283Z,9.29
2023-02-19T04:48:47.433Z,9.23
2023-02-19T04:51:14.602Z,9.23
2023-02-19T04:53:41.040Z,9.23
2023-02-19T04:56:12.319Z,9.22
2023-02-19T04:58:39.188Z,9.18
2023-02-19T05:01:05.678Z,9.18
2023-02-19T05:03:32.571Z,9.11
2023-02-19T05:06:04.951Z,9.14
2023-02-19T05:08:31.396Z,9.02
2023-02-19T05:10:59.667Z,8.93
2023-02-19T05:13:29.560Z,8.99
2023-02-19T05:16:01.039Z,8.95
2023-02-19T05:18:28.260Z,8.91
2023-02-19T05:20:54.692Z,8.91
2023-02-19T05:23:21.219Z,8.80
2023-02-19T05:25:47.895Z,8.81
2023-02-19T05:28:17.711Z,8.72
2023-02-19T05:30:50.458Z,8.77
2023-02-19T05:33:18.322Z,8.72
2023-02-19T05:35:49.857Z,8.80
2023-02-19T05:38:17.268Z,8.78
2023-02-19T05:40:45.021Z,8.74
2023-02-19T05:43:12.557Z,8.69
2023-02-19T05:45:39.387Z,8.70
2023-02-19T05:48:07.208Z,8.72
2023-02-19T05:50:35.220Z,8.69
2023-02-19T05:53:02.783Z,8.73
2023-02-19T05:55:33.798Z,8.66
2023-02-19T05:58:00.725Z,8.66
2023-02-19T06:00:27.468Z,8.70
2023-02-19T06:02:54.733Z,8.74
2023-02-19T06:05:21.231Z,8.71
2023-02-19T06:07:50.410Z,8.69
2023-02-19T06:10:17.428Z,8.74
2023-02-19T06:12:44.214Z,8.69
2023-02-19T06:15:10.622Z,8.73
2023-02-19T06:17:37.179Z,8.69
2023-02-19T06:20:03.821Z,8.66
2023-02-19T06:22:30.240Z,8.68
2023-02-19T06:24:56.729Z,8.66
2023-02-19T06:27:23.174Z,8.72
2023-02-19T06:29:49.580Z,8.69
2023-02-19T06:32:16.930Z,8.62
2023-02-19T06:34:43.469Z,8.64
2023-02-19T06:37:14.282Z,8.60
2023-02-19T06:39:40.681Z,8.61
2023-02-19T06:42:07.137Z,8.57
2023-02-19T06:44:33.578Z,8.65
2023-02-19T06:47:00.154Z,8.64
2023-02-19T06:49:26.578Z,8.69
2023-02-19T06:51:53.012Z,8.68
2023-02-19T06:54:19.450Z,8.71
2023-02-19T06:56:47.153Z,8.71
2023-02-19T06:59:19.366Z,8.68
2023-02-19T07:01:46.895Z,8.73
2023-02-19T07:04:14.401Z,8.68
2023-02-19T07:06:40.911Z,8.70
2023-02-19T07:09:08.774Z,8.71
2023-02-19T07:11:38.165Z,8.82
2023-02-19T07:14:07.710Z,8.79
2023-02-19T07:16:34.596Z,8.84
2023-02-19T07:19:01.513Z,8.87
2023-02-19T07:21:29.208Z,8.95
2023-02-19T07:23:55.919Z,8.94
2023-02-19T07:26:23.094Z,9.06
2023-02-19T07:28:54.542Z,9.14
2023-02-19T07:31:25.795Z,9.17
2023-02-19T07:33:53.655Z,9.13
2023-02-19T07:36:21.495Z,9.14
2023-02-19T07:38:52.675Z,9.23
2023-02-19T07:41:19.090Z,9.22
2023-02-19T07:43:45.512Z,9.20
2023-02-19T07:46:15.378Z,9.18
2023-02-19T07:48:42.865Z,9.19
2023-02-19T07:51:13.687Z,9.20
2023-02-19T07:53:41.602Z,9.31
2023-02-19T07:56:08.893Z,9.30
2023-02-19T07:58:35.908Z,9.30
2023-02-19T08:01:37.259Z,9.19
2023-02-19T08:04:03.681Z,9.11
2023-02-19T08:06:30.120Z,9.13
2023-02-19T08:08:57.822Z,9.16
2023-02-19T08:11:43.089Z,9.23
2023-02-19T08:14:09.495Z,9.25
2023-02-19T08:16:43.054Z,9.29
2023-02-19T08:19:10.160Z,9.39
2023-02-19T08:21:36.711Z,9.54
2023-02-19T08:24:03.272Z,9.95
2023-02-19T08:26:30.102Z,9.84
2023-02-19T08:28:56.551Z,9.77
2023-02-19T08:31:33.394Z,9.72
2023-02-19T08:34:01.612Z,9.68
2023-02-19T08:36:28.076Z,9.78
2023-02-19T08:38:54.654Z,9.90
2023-02-19T08:41:21.486Z,9.90
2023-02-19T08:43:47.904Z,9.64
2023-02-19T08:46:14.690Z,9.74
2023-02-19T08:48:41.429Z,9.66
2023-02-19T08:51:11.264Z,9.62
2023-02-19T08:53:39.866Z,9.65
2023-02-19T08:56:08.599Z,9.97
2023-02-19T08:58:38.710Z,9.82
2023-02-19T09:01:13.890Z,10.02
2023-02-19T09:03:41.176Z,10.58
2023-02-19T09:06:07.868Z,12.14
2023-02-19T09:08:34.360Z,12.88
2023-02-19T09:11:02.281Z,12.63
2023-02-19T09:13:35.895Z,13.14
2023-02-19T09:16:03.483Z,12.86
2023-02-19T09:18:31.103Z,12.12
2023-02-19T09:21:04.667Z,11.24
2023-02-19T09:23:34.645Z,11.36
2023-02-19T09:26:03.256Z,10.86
2023-02-19T09:28:29.691Z,10.93
2023-02-19T09:30:56.306Z,10.76
2023-02-19T09:33:22.904Z,10.59
2023-02-19T09:35:49.324Z,10.41
2023-02-19T09:38:15.816Z,10.20
2023-02-19T09:40:43.389Z,10.26
2023-02-19T09:43:16.844Z,9.99
2023-02-19T09:45:43.795Z,9.83
2023-02-19T09:48:12.251Z,9.74
2023-02-19T09:50:47.669Z,9.82
2023-02-19T09:53:41.799Z,9.98
2023-02-19T09:56:08.777Z,10.72
2023-02-19T09:58:43.239Z,11.29
2023-02-19T10:01:12.309Z,11.20
2023-02-19T10:03:43.241Z,11.25
2023-02-19T10:06:22.629Z,10.84
2023-02-19T10:08:52.425Z,10.72
2023-02-19T10:11:19.594Z,10.61
2023-02-19T10:14:01.044Z,10.49
2023-02-19T10:16:28.843Z,10.29
2023-02-19T10:18:56.464Z,10.18
2023-02-19T10:21:25.755Z,10.07
2023-02-19T10:23:56.570Z,9.66
2023-02-19T10:26:24.054Z,9.61
2023-02-19T10:28:50.793Z,9.28
2023-02-19T10:31:23.697Z,9.29
2023-02-19T10:33:51.580Z,9.42
2023-02-19T10:36:32.412Z,9.05
2023-02-19T10:39:00.577Z,9.08
2023-02-19T10:41:27.864Z,9.13
2023-02-19T10:44:06.632Z,9.08
2023-02-19T10:46:37.719Z,9.17
2023-02-19T10:49:07.561Z,9.14
2023-02-19T10:51:40.079Z,9.19
2023-02-19T10:54:19.393Z,9.03
2023-02-19T10:56:46.289Z,8.93
2023-02-19T10:59:30.663Z,8.93
2023-02-19T11:02:08.956Z,8.84
2023-02-19T11:04:38.034Z,8.98
2023-02-19T11:07:09.953Z,8.89
2023-02-19T11:09:45.637Z,8.94
2023-02-19T11:12:14.156Z,8.75
2023-02-19T11:14:44.947Z,8.56
2023-02-19T11:17:25.242Z,8.75
2023-02-19T11:20:05.981Z,8.75
2023-02-19T11:22:37.830Z,8.80
2023-02-19T11:25:20.129Z,8.77
2023-02-19T11:28:08.440Z,8.91
2023-02-19T11:30:36.653Z,8.86
2023-02-19T11:33:27.481Z,8.69
2023-02-19T11:36:00.479Z,8.61
2023-02-19T11:38:27.038Z,8.55
2023-02-19T11:41:27.094Z,8.49
2023-02-19T11:44:05.936Z,8.69
2023-02-19T11:46:46.925Z,8.73
2023-02-19T11:49:23.322Z,8.55
2023-02-19T11:52:19.299Z,8.64
2023-02-19T11:55:16.947Z,8.86
2023-02-19T11:57:47.990Z,8.85
2023-02-19T12:00:25.428Z,8.86
2023-02-19T12:03:01.306Z,8.79
2023-02-19T12:05:46.666Z,8.76
2023-02-19T12:08:26.030Z,8.83
2023-02-19T12:11:17.883Z,8.94
2023-02-19T12:14:07.004Z,9.02
2023-02-19T12:17:03.310Z,9.08
2023-02-19T12:19:53.251Z,9.23
2023-02-19T12:22:27.475Z,9.33
2023-02-19T12:25:16.223Z,9.14
2023-02-19T12:27:50.981Z,9.49
2023-02-19T12:30:24.798Z,9.55
2023-02-19T12:33:21.726Z,9.42
2023-02-19T12:36:00.084Z,9.36
2023-02-19T12:38:53.196Z,9.38
2023-02-19T12:41:40.295Z,9.36
2023-02-19T12:44:19.570Z,9.61
2023-02-19T12:46:54.165Z,9.57
2023-02-19T12:49:37.450Z,9.92
2023-02-19T12:52:13.383Z,9.88
2023-02-19T12:54:47.516Z,9.99
2023-02-19T12:57:22.687Z,9.77
2023-02-19T12:59:56.459Z,9.72
2023-02-19T13:02:34.562Z,9.70
2023-02-19T13:05:25.606Z,9.63
2023-02-19T13:08:18.128Z,9.51
2023-02-19T13:10:54.754Z,9.47
2023-02-19T13:13:46.819Z,9.49
2023-02-19T13:16:19.536Z,9.65
2023-02-19T13:18:59.371Z,9.70
2023-02-19T13:21:49.249Z,9.77
2023-02-19T13:24:24.901Z,9.79
2023-02-19T13:27:00.463Z,9.62
2023-02-19T13:29:36.590Z,9.64
2023-02-19T13:32:50.013Z,9.70
2023-02-19T13:35:30.615Z,9.68
2023-02-19T13:38:01.980Z,10.10
2023-02-19T13:40:35.026Z,10.82
2023-02-19T13:43:07.888Z,10.58
2023-02-19T13:45:39.954Z,10.25
2023-02-19T13:48:14.730Z,10.18
2023-02-19T13:50:41.735Z,9.92
2023-02-19T13:53:43.308Z,9.82
2023-02-19T13:56:34.726Z,9.43
2023-02-19T13:59:32.167Z,9.68
2023-02-19T14:01:58.984Z,9.74
2023-02-19T14:04:43.826Z,9.35
2023-02-19T14:07:10.777Z,9.36
2023-02-19T14:09:40.646Z,9.32
2023-02-19T14:12:10.419Z,9.33
2023-02-19T14:14:50.129Z,9.32
2023-02-19T14:17:39.552Z,9.20
2023-02-19T14:20:08.859Z,9.08
2023-02-19T14:22:47.551Z,9.18
2023-02-19T14:25:40.295Z,9.06
2023-02-19T14:28:16.932Z,8.97
2023-02-19T14:30:52.344Z,8.94
2023-02-19T14:33:24.424Z,8.90
2023-02-19T14:35:59.564Z,9.04
2023-02-19T14:38:32.712Z,9.06
2023-02-19T14:41:00.972Z,8.97
2023-02-19T14:43:28.670Z,8.91
2023-02-19T14:45:59.029Z,8.94
2023-02-19T14:48:38.602Z,9.00
2023-02-19T14:51:15.391Z,8.99
2023-02-19T14:53:46.682Z,8.90
2023-02-19T14:59:28.007Z,8.85
2023-02-19T15:01:57.079Z,8.97
2023-02-19T15:04:31.414Z,8.95
2023-02-19T15:07:02.178Z,8.97
2023-02-19T15:09:44.057Z,8.89
2023-02-19T15:12:17.722Z,8.85
2023-02-19T15:14:44.782Z,8.72
2023-02-19T15:17:21.105Z,8.82
2023-02-19T15:19:48.166Z,8.79
2023-02-19T15:22:22.570Z,8.83
2023-02-19T15:24:49.155Z,8.65
2023-02-19T15:27:19.976Z,8.63
2023-02-19T15:29:48.633Z,8.72
2023-02-19T15:32:24.042Z,8.70
2023-02-19T15:34:58.777Z,8.70
2023-02-19T15:37:31.321Z,8.62
2023-02-19T15:40:03.253Z,8.60
2023-02-19T15:42:32.312Z,8.43
2023-02-19T15:45:16.484Z,8.63
2023-02-19T15:47:50.271Z,8.57
2023-02-19T15:50:27.212Z,8.56
2023-02-19T15:53:07.354Z,8.45
2023-02-19T15:55:45.678Z,8.34
2023-02-19T15:58:30.653Z,8.15
2023-02-19T16:00:59.296Z,8.24
2023-02-19T16:03:28.802Z,8.30
2023-02-19T16:06:03.274Z,8.08
2023-02-19T16:08:32.836Z,8.21
2023-02-19T16:11:02.279Z,7.91
2023-02-19T16:13:31.432Z,8.18
2023-02-19T16:16:02.367Z,8.18
2023-02-19T16:18:29.425Z,7.93
2023-02-19T16:21:00.272Z,8.11
2023-02-19T16:23:27.507Z,8.12
2023-02-19T16:26:02.528Z,8.03
2023-02-19T16:28:37.660Z,8.05
2023-02-19T16:31:10.661Z,8.07
2023-02-19T16:33:41.424Z,7.94
2023-02-19T16:36:29.456Z,7.91
2023-02-19T16:39:03.120Z,8.02
2023-02-19T16:41:29.590Z,7.92
2023-02-19T16:43:55.998Z,7.87
2023-02-19T16:46:22.643Z,7.77
2023-02-19T16:48:50.512Z,7.89
2023-02-19T16:51:25.765Z,7.84
2023-02-19T16:53:52.615Z,7.88
2023-02-19T16:56:23.332Z,7.85
2023-02-19T16:58:50.378Z,7.96
2023-02-19T17:01:18.872Z,8.05
2023-02-19T17:03:47.052Z,8.01
2023-02-19T17:06:14.286Z,7.99
2023-02-19T17:08:45.661Z,7.92
2023-02-19T17:11:14.910Z,7.84
2023-02-19T17:13:42.240Z,7.82
2023-02-19T17:16:16.884Z,7.86
2023-02-19T17:18:43.320Z,7.83
2023-02-19T17:21:25.075Z,7.87
2023-02-19T17:23:52.436Z,7.90
2023-02-19T17:26:22.600Z,7.68
2023-02-19T17:28:49.441Z,7.67
2023-02-19T17:31:16.079Z,7.79
2023-02-19T17:33:42.996Z,7.71
2023-02-19T17:36:18.976Z,7.67
2023-02-19T17:38:45.611Z,7.67
2023-02-19T17:41:12.273Z,7.54
2023-02-19T17:43:38.823Z,7.59
2023-02-19T17:46:05.326Z,7.74
2023-02-19T17:48:32.123Z,7.78
2023-02-19T17:50:58.624Z,7.73
2023-02-19T17:53:25.085Z,7.81
2023-02-19T17:55:51.505Z,7.76
2023-02-19T17:58:18.051Z,7.71
2023-02-19T18:00:44.521Z,7.65
2023-02-19T18:03:11.149Z,7.55
2023-02-19T18:05:37.657Z,7.54
2023-02-19T18:08:04.091Z,7.46
2023-02-19T18:10:30.544Z,7.42
2023-02-19T18:12:56.956Z,7.53
2023-02-19T18:15:26.872Z,7.57
2023-02-19T18:17:54.666Z,7.49
2023-02-19T18:20:26.610Z,7.49
2023-02-19T18:22:54.011Z,7.49
2023-02-19T18:25:21.354Z,7.43
2023-02-19T18:27:48.739Z,7.36
2023-02-19T18:30:18.941Z,7.30
2023-02-19T18:32:49.588Z,7.28
2023-02-19T18:35:18.140Z,7.24
2023-02-19T18:37:44.737Z,7.19
2023-02-19T18:40:12.155Z,7.27
2023-02-19T18:42:40.393Z,7.19
2023-02-19T18:45:07.467Z,7.13
2023-02-19T18:47:34.047Z,7.20
2023-02-19T18:50:00.690Z,7.17
2023-02-19T18:52:28.071Z,7.15
2023-02-19T18:54:57.367Z,7.29
2023-02-19T18:57:26.532Z,7.04
2023-02-19T18:59:53.562Z,7.15
2023-02-19T19:02:20.587Z,7.16
2023-02-19T19:04:51.746Z,7.07
2023-02-19T19:07:19.469Z,7.04
2023-02-19T19:09:46.380Z,7.16
2023-02-19T19:12:16.713Z,7.08
2023-02-19T19:14:43.192Z,7.03
2023-02-19T19:17:09.667Z,7.12
2023-02-19T19:19:36.157Z,7.12
2023-02-19T19:22:02.934Z,7.26
2023-02-19T19:24:29.374Z,7.22
2023-02-19T19:26:55.922Z,7.14
2023-02-19T19:29:22.978Z,7.20
2023-02-19T19:31:50.284Z,7.22
2023-02-19T19:34:17.256Z,7.19
2023-02-19T19:36:44.397Z,7.23
2023-02-19T19:39:11.451Z,7.28
2023-02-19T19:41:37.934Z,7.26
2023-02-19T19:44:06.014Z,7.22
2023-02-19T19:46:32.938Z,7.25
2023-02-19T19:48:59.433Z,7.28
2023-02-19T19:51:34.137Z,7.35
2023-02-19T19:54:01.991Z,7.39
2023-02-19T19:56:28.570Z,7.44
2023-02-19T19:58:55.399Z,7.40
2023-02-19T20:01:23.111Z,7.26
2023-02-19T20:03:51.109Z,7.26
2023-02-19T20:06:31.525Z,7.24
2023-02-19T20:08:59.920Z,7.27
2023-02-19T20:11:26.679Z,7.20
2023-02-19T20:13:53.187Z,7.24
2023-02-19T20:16:28.995Z,7.13
2023-02-19T20:18:55.438Z,7.20
2023-02-19T20:21:22.947Z,7.12
2023-02-19T20:23:49.704Z,7.14
2023-02-19T20:26:25.561Z,7.16
2023-02-19T20:28:53.035Z,7.20
2023-02-19T20:31:20.136Z,7.33
2023-02-19T20:33:48.315Z,7.26
2023-02-19T20:36:14.709Z,7.42
2023-02-19T20:38:43.506Z,7.36
2023-02-19T20:41:11.019Z,7.36
2023-02-19T20:43:37.798Z,7.25
2023-02-19T20:46:07.149Z,7.31
2023-02-19T20:48:33.860Z,7.34
2023-02-19T20:51:00.585Z,7.33
2023-02-19T20:53:27.940Z,7.35
2023-02-19T20:55:55.458Z,7.32
2023-02-19T20:58:22.816Z,7.46
2023-02-19T21:00:49.543Z,7.38
2023-02-19T21:03:16.026Z,7.42
2023-02-19T21:05:45.615Z,7.46
2023-02-19T21:08:13.991Z,7.39
2023-02-19T21:10:40.567Z,7.46
2023-02-19T21:13:06.992Z,7.56
2023-02-19T21:15:36.349Z,7.51
2023-02-19T21:18:04.958Z,7.44
2023-02-19T21:20:32.105Z,7.53
2023-02-19T21:22:58.598Z,7.55
2023-02-19T21:25:25.133Z,7.63
2023-02-19T21:27:51.617Z,7.53
2023-02-19T21:30:18.178Z,7.47
2023-02-19T21:32:44.617Z,7.50
2023-02-19T21:35:11.078Z,7.41
2023-02-19T21:37:41.669Z,7.49
2023-02-19T21:40:08.754Z,7.46
2023-02-19T21:42:37.149Z,7.36
2023-02-19T21:45:03.964Z,7.51
2023-02-19T21:47:30.366Z,7.56
2023-02-19T21:49:57.683Z,7.44
2023-02-19T21:52:24.109Z,7.30
2023-02-19T21:54:50.579Z,7.37
2023-02-19T21:57:18.384Z,7.51
2023-02-19T21:59:44.893Z,7.45
2023-02-19T22:02:11.418Z,7.44
2023-02-19T22:04:37.879Z,7.43
2023-02-19T22:07:04.798Z,7.52
2023-02-19T22:09:31.342Z,7.55
2023-02-19T22:11:57.967Z,7.56
2023-02-19T22:14:24.678Z,7.53
2023-02-19T22:16:51.764Z,7.52
2023-02-19T22:19:18.252Z,7.52
2023-02-19T22:21:47.796Z,7.55
2023-02-19T22:24:17.710Z,7.50
2023-02-19T22:26:45.624Z,7.60
2023-02-19T22:29:14.455Z,7.50
2023-02-19T22:31:40.943Z,7.52
2023-02-19T22:34:07.673Z,7.54
2023-02-19T22:36:37.212Z,7.59
2023-02-19T22:39:06.363Z,7.59
2023-02-19T22:41:33.045Z,7.66
2023-02-19T22:44:00.285Z,7.63
2023-02-19T22:46:30.002Z,7.63
2023-02-19T22:48:57.464Z,7.65
2023-02-19T22:51:24.538Z,7.63
2023-02-19T22:53:56.208Z,7.68
2023-02-19T22:56:25.220Z,7.65
2023-02-19T22:58:52.309Z,7.62
2023-02-19T23:01:19.579Z,7.56
2023-02-19T23:03:46.994Z,7.54
2023-02-19T23:06:14.783Z,7.57
2023-02-19T23:08:42.768Z,7.52
2023-02-19T23:11:11.177Z,7.53
2023-02-19T23:13:37.905Z,7.54
2023-02-19T23:16:04.750Z,7.48
2023-02-19T23:18:34.114Z,7.47
2023-02-19T23:21:00.620Z,7.50
2023-02-19T23:23:27.057Z,7.42
2023-02-19T23:25:53.563Z,7.44
2023-02-19T23:28:20.038Z,7.48
2023-02-19T23:30:46.595Z,7.45
2023-02-19T23:33:13.615Z,7.41
2023-02-19T23:35:40.133Z,7.44
2023-02-19T23:38:06.588Z,7.41
2023-02-19T23:40:33.033Z,7.42
2023-02-19T23:43:03.110Z,7.36
2023-02-19T23:45:29.950Z,7.34
2023-02-19T23:47:56.636Z,7.30
2023-02-19T23:50:23.229Z,7.24
2023-02-19T23:52:49.747Z,7.26
2023-02-19T23:55:16.323Z,7.20
2023-02-19T23:57:42.901Z,7.24
